Time;durP1;ratioP1;P1;durP2;ratioP2;P2;SDS_P1;SDS_P2;PMS_P1;PMS_P2;Temp;Humidity;BMP_temperature;BMP_pressure;BME280_temperature;BME280_humidity;BME280_pressure;Samples;Min_cycle;Max_cycle;Signal;HPM_P1;HPM_P2
2022/04/03 00:01:04;;;;;;;20.02;8.63;;;;;;;0.16;93.79;98697.47;5062971;28;20039;-68
2022/04/03 00:03:30;;;;;;;29.65;8.13;;;;;;;0.13;94.27;98700.00;5050662;28;20028;-68
2022/04/03 00:05:55;;;;;;;19.33;8.30;;;;;;;0.13;94.39;98698.31;5043737;28;20029;-68
2022/04/03 00:08:20;;;;;;;18.65;7.07;;;;;;;0.04;94.36;98701.53;5054338;28;20018;-68
2022/04/03 00:10:46;;;;;;;27.90;7.47;;;;;;;0.08;93.70;98696.41;5043655;28;20029;-68
2022/04/03 00:13:12;;;;;;;23.90;8.82;;;;;;;0.07;94.21;98694.69;5043672;28;20241;-68
2022/04/03 00:15:41;;;;;;;13.90;6.03;;;;;;;0.04;93.69;98700.69;5043693;28;20036;-68
2022/04/03 00:18:08;;;;;;;13.32;6.65;;;;;;;-0.03;93.77;98704.81;5048579;28;20325;-68
2022/04/03 00:20:38;;;;;;;18.67;6.60;;;;;;;-0.05;93.50;98708.22;5062995;28;20063;-68
2022/04/03 00:23:04;;;;;;;7.72;4.53;;;;;;;-0.17;93.94;98706.22;5063093;28;20025;-68
2022/04/03 00:25:29;;;;;;;13.20;5.32;;;;;;;-0.18;94.76;98707.03;5061595;28;20094;-68
2022/04/03 00:27:55;;;;;;;8.90;4.18;;;;;;;-0.14;94.66;98713.19;5061330;28;20231;-68
2022/04/03 00:30:20;;;;;;;6.90;4.32;;;;;;;-0.22;94.55;98707.81;5051759;28;20081;-68
2022/04/03 00:32:46;;;;;;;10.48;4.30;;;;;;;-0.26;95.00;98716.34;5043404;28;20293;-68
2022/04/03 00:35:11;;;;;;;9.30;4.55;;;;;;;-0.30;94.82;98714.53;5043522;28;20029;-68
2022/04/03 00:37:37;;;;;;;7.30;4.38;;;;;;;-0.28;95.39;98712.84;5043688;28;20036;-68
2022/04/03 00:40:03;;;;;;;8.57;4.05;;;;;;;-0.28;95.17;98720.59;5051758;28;20025;-68
2022/04/03 00:42:32;;;;;;;10.35;4.30;;;;;;;-0.26;94.69;98715.47;5051067;28;20090;-68
2022/04/03 00:44:57;;;;;;;10.57;4.65;;;;;;;-0.26;95.50;98716.34;5043422;28;20148;-68
2022/04/03 00:47:23;;;;;;;8.98;3.28;;;;;;;-0.30;95.04;98724.88;5043442;28;20321;-68
2022/04/03 00:49:48;;;;;;;6.20;3.55;;;;;;;-0.25;95.05;98723.25;5056207;28;20021;-68
2022/04/03 00:52:14;;;;;;;12.63;4.22;;;;;;;-0.32;95.51;98716.19;5061365;28;20386;-68
2022/04/03 00:54:39;;;;;;;5.07;3.70;;;;;;;-0.39;95.37;98716.88;5062464;28;20025;-68
2022/04/03 00:57:06;;;;;;;10.23;3.70;;;;;;;-0.34;95.30;98714.41;5062678;28;20021;-68
2022/04/03 00:59:31;;;;;;;5.40;3.40;;;;;;;-0.27;95.43;98714.59;5062424;28;20084;-68
2022/04/03 01:01:57;;;;;;;12.75;5.57;;;;;;;-0.23;95.33;98713.84;5054303;28;20032;-68
2022/04/03 01:04:22;;;;;;;13.63;4.65;;;;;;;-0.18;95.09;98708.78;5049845;28;20240;-68
2022/04/03 01:06:48;;;;;;;6.90;4.18;;;;;;;-0.19;95.58;98710.47;5046788;28;20097;-68
2022/04/03 01:09:14;;;;;;;22.70;4.30;;;;;;;-0.09;95.43;98712.44;5046720;28;20032;-68
2022/04/03 01:11:40;;;;;;;8.90;3.95;;;;;;;-0.12;95.47;98725.28;5054632;28;20316;-68
2022/04/03 01:14:05;;;;;;;8.50;4.53;;;;;;;-0.11;94.97;98715.84;5046618;28;20025;-68
2022/04/03 01:16:35;;;;;;;12.88;4.53;;;;;;;-0.16;95.00;98717.44;5046541;28;20053;-68
2022/04/03 01:19:01;;;;;;;7.70;4.18;;;;;;;-0.15;95.40;98720.03;5046591;28;20339;-68
2022/04/03 01:21:26;;;;;;;9.10;4.43;;;;;;;-0.13;96.08;98718.38;5046485;28;20049;-68
2022/04/03 01:23:54;;;;;;;8.07;5.18;;;;;;;-0.11;95.31;98715.84;5063200;28;20025;-68
2022/04/03 01:26:19;;;;;;;8.68;4.18;;;;;;;-0.02;95.41;98714.34;5066083;28;20013;-68
2022/04/03 01:28:45;;;;;;;10.38;5.05;;;;;;;-0.02;95.61;98721.22;5050654;28;20406;-68
2022/04/03 01:31:10;;;;;;;6.82;4.85;;;;;;;0.04;95.03;98716.19;5046742;28;20025;-68
2022/04/03 01:33:36;;;;;;;7.78;4.07;;;;;;;0.05;95.34;98717.94;5046770;28;20104;-68
2022/04/03 01:36:01;;;;;;;10.65;4.28;;;;;;;0.01;95.64;98716.13;5052755;28;20033;-68
2022/04/03 01:38:27;;;;;;;5.18;3.30;;;;;;;0.04;95.58;98716.19;5065327;28;20080;-68
2022/04/03 01:40:52;;;;;;;6.90;3.80;;;;;;;0.12;95.03;98724.13;5065539;28;20024;-68
2022/04/03 01:43:18;;;;;;;5.90;2.88;;;;;;;0.08;94.79;98720.59;5049459;28;20050;-68
2022/04/03 01:45:43;;;;;;;11.30;4.70;;;;;;;0.06;94.74;98724.00;5046008;28;20025;-68
2022/04/03 01:48:10;;;;;;;8.88;4.20;;;;;;;-0.03;95.31;98717.75;5064349;28;20397;-68
2022/04/03 01:50:36;;;;;;;13.88;4.43;;;;;;;-0.07;95.43;98713.34;5065929;28;20063;-68
2022/04/03 01:53:01;;;;;;;8.40;4.63;;;;;;;-0.08;95.58;98721.09;5065929;28;20028;-68
2022/04/03 01:55:28;;;;;;;13.43;5.70;;;;;;;-0.07;95.08;98718.53;5048249;28;20048;-68
2022/04/03 01:57:54;;;;;;;7.88;4.43;;;;;;;-0.02;95.13;98722.13;5045698;28;20097;-68
2022/04/03 02:00:20;;;;;;;12.02;3.53;;;;;;;0.00;94.88;98715.25;5046882;28;20027;-68
2022/04/03 02:02:45;;;;;;;7.68;4.28;;;;;;;-0.08;95.61;98711.63;5045730;28;20123;-68
2022/04/03 02:05:11;;;;;;;8.65;4.70;;;;;;;-0.02;95.44;98711.78;5059960;28;20064;-68
2022/04/03 02:07:36;;;;;;;8.20;4.28;;;;;;;0.01;95.32;98716.97;5056543;28;20083;-68
2022/04/03 02:10:12;;;;;;;9.18;4.43;;;;;;;-0.02;95.19;98719.53;5065007;28;20088;-68
2022/04/03 02:12:39;;;;;;;7.93;4.03;;;;;;;0.01;95.16;98716.13;5064951;28;20235;-68
2022/04/03 02:15:06;;;;;;;7.95;4.63;;;;;;;0.11;95.01;98712.03;5064794;28;20028;-68
2022/04/03 02:17:31;;;;;;;4.50;3.28;;;;;;;0.19;94.86;98715.66;5064736;28;20025;-68
2022/04/03 02:19:57;;;;;;;7.45;4.00;;;;;;;0.19;94.90;98718.25;5046894;28;20339;-68
2022/04/03 02:22:22;;;;;;;7.65;4.57;;;;;;;0.16;95.44;98718.19;5049841;28;20020;-68
2022/04/03 02:24:48;;;;;;;7.15;3.40;;;;;;;0.22;95.20;98720.91;5064711;28;20084;-68
2022/04/03 02:27:13;;;;;;;11.50;4.90;;;;;;;0.23;95.32;98722.66;5064642;28;20017;-68
2022/04/03 02:29:39;;;;;;;9.27;5.20;;;;;;;0.25;94.86;98715.81;5059474;28;20025;-68
2022/04/03 02:32:04;;;;;;;8.50;4.45;;;;;;;0.21;95.52;98719.16;5045047;28;20333;-68
2022/04/03 02:34:30;;;;;;;7.70;3.53;;;;;;;0.26;95.43;98723.59;5045116;28;20017;-68
2022/04/03 02:36:55;;;;;;;10.32;5.13;;;;;;;0.26;95.32;98717.53;5045000;28;20065;-68
2022/04/03 02:39:21;;;;;;;7.82;4.32;;;;;;;0.24;94.82;98719.22;5045040;28;20052;-68
2022/04/03 02:41:47;;;;;;;9.48;4.82;;;;;;;0.22;95.24;98715.75;5056543;28;20017;-68
2022/04/03 02:44:13;;;;;;;7.05;3.70;;;;;;;0.35;95.22;98728.09;5064340;28;20261;-68
2022/04/03 02:46:39;;;;;;;6.82;4.07;;;;;;;0.29;95.42;98717.63;5049975;28;20013;-68
2022/04/03 02:49:08;;;;;;;15.55;4.55;;;;;;;0.31;95.63;98731.47;5045024;28;20032;-68
2022/04/03 02:51:35;;;;;;;10.95;3.53;;;;;;;0.31;96.04;98726.31;5045033;28;20025;-68
2022/04/03 02:54:01;;;;;;;13.27;3.97;;;;;;;0.38;95.69;98725.59;5061473;28;20020;-68
2022/04/03 02:56:26;;;;;;;9.65;4.25;;;;;;;0.38;95.78;98730.75;5063960;28;20202;-68
2022/04/03 02:58:53;;;;;;;7.30;4.35;;;;;;;0.36;95.63;98730.72;5064079;28;20025;-68
2022/04/03 03:01:19;;;;;;;11.75;4.15;;;;;;;0.42;95.92;98736.03;5063754;28;20017;-68
2022/04/03 03:03:44;;;;;;;6.00;4.68;;;;;;;0.41;95.27;98739.44;5059682;28;20017;-68
2022/04/03 03:06:10;;;;;;;6.10;3.53;;;;;;;0.40;95.48;98729.94;5044548;28;20013;-68
2022/04/03 03:08:35;;;;;;;7.25;4.22;;;;;;;0.43;95.17;98742.06;5046592;28;20086;-68
2022/04/03 03:11:01;;;;;;;8.10;4.22;;;;;;;0.39;94.77;98740.28;5064073;28;20093;-68
2022/04/03 03:13:27;;;;;;;10.35;4.53;;;;;;;0.40;94.98;98742.88;5063482;28;20374;-68
2022/04/03 03:15:53;;;;;;;7.03;4.20;;;;;;;0.40;95.20;98742.88;5052257;28;20087;-68
2022/04/03 03:18:19;;;;;;;6.20;4.05;;;;;;;0.38;95.59;98739.38;5044417;28;20025;-68
2022/04/03 03:20:44;;;;;;;8.52;4.47;;;;;;;0.35;96.19;98741.06;5044319;28;20020;-68
2022/04/03 03:23:10;;;;;;;6.90;3.33;;;;;;;0.33;95.83;98740.13;5044282;28;20041;-68
2022/04/03 03:25:35;;;;;;;9.13;5.00;;;;;;;0.39;95.44;98740.28;5044066;28;20093;-68
2022/04/03 03:28:01;;;;;;;7.28;4.28;;;;;;;0.45;95.06;98737.81;5059968;28;20048;-68
2022/04/03 03:30:27;;;;;;;9.10;3.70;;;;;;;0.39;94.84;98735.97;5055889;28;20324;-68
2022/04/03 03:32:52;;;;;;;6.60;4.40;;;;;;;0.25;95.17;98741.69;5051577;28;20105;-68
2022/04/03 03:35:18;;;;;;;7.35;3.95;;;;;;;0.27;96.02;98742.56;5044064;28;20037;-68
2022/04/03 03:37:44;;;;;;;8.13;4.30;;;;;;;0.33;95.61;98741.00;5045328;28;20384;-68
2022/04/03 03:40:11;;;;;;;8.45;4.35;;;;;;;0.44;95.39;98743.84;5063419;28;20096;-68
2022/04/03 03:42:38;;;;;;;8.25;3.85;;;;;;;0.43;95.36;98736.91;5053330;28;20384;-68
2022/04/03 03:45:04;;;;;;;6.65;3.55;;;;;;;0.39;95.98;98740.28;5043956;28;20022;-68
2022/04/03 03:47:31;;;;;;;5.85;3.38;;;;;;;0.34;95.80;98741.91;5043937;28;20248;-68
2022/04/03 03:49:56;;;;;;;8.40;4.70;;;;;;;0.30;96.28;98743.53;5047064;28;20268;-68
2022/04/03 03:52:22;;;;;;;7.95;4.63;;;;;;;0.35;95.87;98741.06;5063820;28;20025;-68
2022/04/03 03:54:48;;;;;;;6.05;3.47;;;;;;;0.31;95.70;98739.25;5063809;28;20024;-68
2022/04/03 03:57:13;;;;;;;8.50;4.72;;;;;;;0.30;95.58;98746.13;5062051;28;20016;-68
2022/04/03 03:59:39;;;;;;;10.40;5.22;;;;;;;0.27;95.43;98755.50;5063808;28;20320;-68
2022/04/03 04:02:05;;;;;;;8.63;4.50;;;;;;;0.24;96.28;98756.34;5063770;28;20120;-68
2022/04/03 04:04:30;;;;;;;9.70;5.38;;;;;;;0.25;95.40;98752.91;5063663;28;20025;-68
2022/04/03 04:06:56;;;;;;;11.65;4.72;;;;;;;0.30;95.85;98756.47;5063673;28;20070;-68
2022/04/03 04:09:22;;;;;;;9.15;5.63;;;;;;;0.27;95.42;98765.88;5063681;28;20028;-68
2022/04/03 04:11:48;;;;;;;12.80;6.07;;;;;;;0.32;95.61;98759.97;5063881;28;20017;-68
2022/04/03 04:14:14;;;;;;;7.25;3.97;;;;;;;0.28;94.38;98757.28;5062042;28;20190;-68
2022/04/03 04:16:40;;;;;;;9.95;5.30;;;;;;;0.37;94.30;98762.66;5063227;28;20024;-68
2022/04/03 04:19:06;;;;;;;10.07;5.32;;;;;;;0.46;94.44;98760.25;5063538;28;20025;-68
2022/04/03 04:21:32;;;;;;;7.75;5.00;;;;;;;0.40;94.43;98763.59;5062204;28;20028;-68
2022/04/03 04:23:57;;;;;;;11.73;4.95;;;;;;;0.44;94.36;98768.00;5043577;28;20017;-68
2022/04/03 04:26:23;;;;;;;9.38;4.68;;;;;;;0.52;93.76;98770.75;5043590;28;20017;-68
2022/04/03 04:28:49;;;;;;;9.93;4.88;;;;;;;0.46;93.95;98763.75;5043532;28;20021;-68
2022/04/03 04:31:15;;;;;;;15.48;5.30;;;;;;;0.39;94.58;98766.16;5043796;28;20079;-68
2022/04/03 04:33:41;;;;;;;8.23;4.38;;;;;;;0.45;94.45;98771.47;5043772;28;20087;-68
2022/04/03 04:36:07;;;;;;;9.20;4.90;;;;;;;0.51;94.46;98771.63;5043438;28;20029;-68
2022/04/03 04:38:32;;;;;;;7.75;5.13;;;;;;;0.50;94.54;98775.06;5045986;28;20025;-68
2022/04/03 04:40:58;;;;;;;8.30;4.30;;;;;;;0.55;93.82;98776.00;5047230;28;20343;-68
2022/04/03 04:43:23;;;;;;;11.45;4.45;;;;;;;0.58;93.73;98781.25;5047217;28;20021;-68
2022/04/03 04:45:48;;;;;;;8.82;4.03;;;;;;;0.46;94.15;98775.81;5047184;28;20213;-68
2022/04/03 04:48:14;;;;;;;5.43;3.45;;;;;;;0.56;94.21;98785.50;5045960;28;20021;-68
2022/04/03 04:50:39;;;;;;;7.30;4.18;;;;;;;0.59;94.82;98785.59;5047067;28;20052;-68
2022/04/03 04:53:05;;;;;;;18.02;4.18;;;;;;;0.50;95.54;98780.22;5047031;28;20025;-68
2022/04/03 04:55:31;;;;;;;6.90;3.83;;;;;;;0.47;95.51;98790.53;5065053;28;20028;-68
2022/04/03 04:57:57;;;;;;;8.18;4.28;;;;;;;0.57;95.25;98792.47;5066831;28;20043;-68
2022/04/03 05:00:27;;;;;;;10.73;5.30;;;;;;;0.67;94.73;98794.41;5066856;28;20032;-68
2022/04/03 05:02:53;;;;;;;8.63;4.25;;;;;;;0.60;95.33;98787.34;5066833;28;20024;-68
2022/04/03 05:05:20;;;;;;;9.80;4.80;;;;;;;0.58;94.89;98789.03;5067001;28;20024;-68
2022/04/03 05:07:47;;;;;;;8.60;4.72;;;;;;;0.61;94.75;98786.50;5066685;28;20021;-68
2022/04/03 05:10:15;;;;;;;9.13;4.85;;;;;;;0.64;94.87;98794.34;5066605;28;20080;-68
2022/04/03 05:12:41;;;;;;;11.15;5.47;;;;;;;0.66;94.93;98795.25;5066637;28;20025;-68
2022/04/03 05:15:08;;;;;;;6.78;3.75;;;;;;;0.69;94.16;98795.34;5066578;28;20333;-68
2022/04/03 05:17:34;;;;;;;6.65;4.13;;;;;;;0.61;94.71;98795.16;5066588;28;20047;-68
2022/04/03 05:19:59;;;;;;;7.30;4.10;;;;;;;0.63;95.03;98800.38;5066500;28;20052;-68
2022/04/03 05:22:26;;;;;;;11.35;5.15;;;;;;;0.67;94.90;98807.38;5057345;28;20029;-68
2022/04/03 05:24:52;;;;;;;8.60;5.32;;;;;;;0.65;94.84;98806.44;5046395;28;20033;-68
2022/04/03 05:27:17;;;;;;;8.82;4.70;;;;;;;0.71;95.04;98807.47;5046388;28;20036;-68
2022/04/03 05:29:43;;;;;;;16.70;4.78;;;;;;;0.77;94.18;98809.31;5046350;28;20213;-68
2022/04/03 05:32:09;;;;;;;4.85;2.97;;;;;;;0.82;93.31;98810.28;5046151;28;20092;-68
2022/04/03 05:34:34;;;;;;;4.82;3.38;;;;;;;0.91;92.53;98815.66;5046457;28;20059;-68
2022/04/03 05:36:59;;;;;;;8.98;4.97;;;;;;;0.91;92.53;98813.06;5046107;28;20052;-68
2022/04/03 05:39:25;;;;;;;6.85;3.72;;;;;;;0.91;91.42;98815.66;5046181;28;20029;-68
2022/04/03 05:41:54;;;;;;;7.50;3.58;;;;;;;0.98;90.12;98817.53;5046120;28;20029;-68
2022/04/03 05:44:19;;;;;;;12.48;4.47;;;;;;;1.01;89.23;98822.78;5046293;28;20335;-68
2022/04/03 05:46:45;;;;;;;4.72;3.75;;;;;;;1.16;88.24;98823.97;5046092;28;20017;-68
2022/04/03 05:49:10;;;;;;;6.68;3.80;;;;;;;1.10;90.76;98822.97;5045277;28;20021;-68
2022/04/03 05:51:37;;;;;;;10.88;4.07;;;;;;;1.03;90.60;98821.09;5046095;28;20089;-68
2022/04/03 05:54:03;;;;;;;6.63;3.40;;;;;;;1.21;90.21;98831.84;5051316;28;20028;-68
2022/04/03 05:56:31;;;;;;;10.27;4.47;;;;;;;1.09;91.77;98829.00;5065984;28;20036;-68
2022/04/03 05:58:57;;;;;;;6.22;3.25;;;;;;;1.26;90.36;98838.88;5065730;28;20016;-68
2022/04/03 06:01:22;;;;;;;10.07;3.55;;;;;;;1.26;89.47;98835.38;5065709;28;20025;-68
2022/04/03 06:03:48;;;;;;;5.55;3.25;;;;;;;1.27;87.75;98842.34;5065654;28;20243;-68
2022/04/03 06:06:13;;;;;;;6.28;3.08;;;;;;;1.48;86.21;98840.16;5065893;28;20253;-68
2022/04/03 06:08:39;;;;;;;7.20;3.97;;;;;;;1.65;88.40;98838.78;5065985;28;20025;-68
2022/04/03 06:11:04;;;;;;;6.43;3.85;;;;;;;1.69;89.34;98843.16;5065608;28;20048;-68
2022/04/03 06:13:30;;;;;;;10.32;4.50;;;;;;;1.85;88.10;98850.38;5047055;28;20029;-68
2022/04/03 06:15:55;;;;;;;11.32;3.38;;;;;;;2.15;84.73;98851.78;5045442;28;20026;-68
2022/04/03 06:18:21;;;;;;;7.00;4.13;;;;;;;2.44;82.90;98857.47;5045471;28;20394;-68
2022/04/03 06:20:47;;;;;;;8.43;4.45;;;;;;;2.69;81.88;98862.19;5045426;28;20036;-68
2022/04/03 06:23:15;;;;;;;6.45;3.85;;;;;;;2.98;80.74;98860.00;5050624;28;20185;-68
2022/04/03 06:25:41;;;;;;;8.60;3.50;;;;;;;3.59;79.99;98870.34;5064509;28;20339;-68
2022/04/03 06:28:07;;;;;;;9.35;4.80;;;;;;;4.18;76.71;98872.72;5061471;28;20017;-68
2022/04/03 06:30:32;;;;;;;9.43;4.10;;;;;;;4.56;73.04;98880.00;5045273;28;20056;-68
2022/04/03 06:32:57;;;;;;;6.43;3.35;;;;;;;5.33;70.94;98876.16;5060816;28;20352;-68
2022/04/03 06:35:23;;;;;;;9.75;4.03;;;;;;;5.60;68.72;98881.53;5062273;28;20340;-68
2022/04/03 06:37:48;;;;;;;6.22;3.45;;;;;;;5.66;67.22;98884.16;5063257;28;20070;-68
2022/04/03 06:40:14;;;;;;;8.38;4.07;;;;;;;6.13;66.08;98893.91;5061872;28;20043;-68
2022/04/03 06:42:40;;;;;;;7.20;4.00;;;;;;;6.40;65.04;98887.88;5044086;28;20076;-68
2022/04/03 06:45:06;;;;;;;11.25;4.10;;;;;;;6.19;66.61;98887.81;5051129;28;20333;-68
2022/04/03 06:47:32;;;;;;;8.45;3.95;;;;;;;6.81;63.94;98890.47;5060032;28;20024;-68
2022/04/03 06:49:58;;;;;;;5.63;3.00;;;;;;;7.02;61.09;98896.56;5061410;28;20024;-68
2022/04/03 06:52:24;;;;;;;5.82;3.72;;;;;;;6.97;59.69;98898.34;5051307;28;20048;-68
2022/04/03 06:54:49;;;;;;;8.93;4.13;;;;;;;7.05;60.79;98901.78;5058903;28;20328;-68
2022/04/03 06:57:16;;;;;;;7.53;4.13;;;;;;;6.99;61.56;98900.94;5062024;28;20309;-68
2022/04/03 06:59:44;;;;;;;10.82;3.95;;;;;;;6.77;62.68;98900.06;5062458;28;20032;-68
2022/04/03 07:02:10;;;;;;;7.53;3.25;;;;;;;6.28;63.00;98898.28;5060785;28;20028;-68
2022/04/03 07:04:36;;;;;;;10.77;4.32;;;;;;;7.19;60.50;98902.66;5063045;28;20020;-68
2022/04/03 07:07:03;;;;;;;8.50;3.55;;;;;;;7.77;58.05;98912.09;5063015;28;20058;-68
2022/04/03 07:09:28;;;;;;;9.52;4.07;;;;;;;8.23;56.34;98916.25;5061585;28;20096;-68
2022/04/03 07:11:53;;;;;;;7.38;3.90;;;;;;;7.94;56.33;98910.25;5062455;28;20355;-68
2022/04/03 07:14:19;;;;;;;9.05;3.80;;;;;;;8.39;55.62;98919.69;5062724;28;20016;-68
2022/04/03 07:16:44;;;;;;;8.68;3.90;;;;;;;8.65;55.28;98923.00;5063135;28;20331;-68
2022/04/03 07:19:11;;;;;;;7.53;3.63;;;;;;;8.69;54.55;98915.09;5063051;28;20055;-68
2022/04/03 07:21:36;;;;;;;5.82;3.45;;;;;;;8.16;55.13;98916.25;5063011;28;20066;-68
2022/04/03 07:24:04;;;;;;;9.90;4.05;;;;;;;8.07;55.30;98921.56;5063920;28;20021;-68
2022/04/03 07:26:30;;;;;;;6.05;3.63;;;;;;;7.56;55.21;98917.38;5061798;28;20024;-68
2022/04/03 07:28:56;;;;;;;8.90;4.18;;;;;;;7.89;55.91;98922.53;5045959;28;20024;-68
2022/04/03 07:31:22;;;;;;;5.72;3.25;;;;;;;8.70;54.36;98922.06;5061162;28;20213;-68
2022/04/03 07:33:47;;;;;;;10.50;3.78;;;;;;;8.65;55.26;98918.63;5044239;28;20025;-66
2022/04/03 07:36:13;;;;;;;8.20;3.00;;;;;;;9.43;54.18;98917.03;5044053;28;20031;-68
2022/04/03 07:38:38;;;;;;;7.63;3.63;;;;;;;9.18;52.94;98914.66;5044180;28;20263;-68
2022/04/03 07:41:03;;;;;;;5.13;2.97;;;;;;;9.45;52.40;98922.25;5044145;28;20021;-69
2022/04/03 07:43:29;;;;;;;4.60;2.90;;;;;;;9.72;50.49;98924.59;5043798;28;20084;-69
2022/04/03 07:45:54;;;;;;;4.82;2.95;;;;;;;9.45;49.93;98924.88;5053474;28;20052;-69
2022/04/03 07:48:21;;;;;;;7.15;3.95;;;;;;;9.28;50.85;98917.19;5063345;28;20103;-69
2022/04/03 07:50:46;;;;;;;5.97;2.72;;;;;;;9.68;50.21;98923.75;5063331;28;20032;-69
2022/04/03 07:53:11;;;;;;;4.43;2.70;;;;;;;9.88;49.84;98927.06;5063012;28;20029;-69
2022/04/03 07:55:37;;;;;;;7.40;3.03;;;;;;;9.33;49.61;98925.03;5063272;28;20087;-69
2022/04/03 07:58:02;;;;;;;4.72;2.53;;;;;;;9.81;50.74;98924.50;5046266;28;20036;-69
2022/04/03 08:00:28;;;;;;;4.07;2.80;;;;;;;9.71;51.61;98925.50;5053175;28;20020;-68
2022/04/03 08:02:54;;;;;;;5.20;2.97;;;;;;;9.64;49.20;98931.69;5063779;28;20032;-68
2022/04/03 08:05:19;;;;;;;5.75;2.80;;;;;;;10.00;49.28;98936.53;5063742;28;20224;-68
2022/04/03 08:07:45;;;;;;;6.38;3.00;;;;;;;10.75;49.58;98940.78;5063757;28;20021;-68
2022/04/03 08:10:17;;;;;;;6.80;2.90;;;;;;;10.66;47.46;98940.91;5061264;28;20028;-68
2022/04/03 08:12:44;;;;;;;8.10;3.08;;;;;;;11.16;46.87;98933.09;5064163;28;20028;-68
2022/04/03 08:15:11;;;;;;;5.65;3.15;;;;;;;11.26;46.39;98939.06;5067212;28;20021;-69
2022/04/03 08:17:40;;;;;;;7.38;3.53;;;;;;;10.80;50.50;98941.59;5066833;28;20313;-69
2022/04/03 08:20:08;;;;;;;6.60;3.28;;;;;;;10.67;50.46;98942.66;5061874;28;20021;-69
2022/04/03 08:22:35;;;;;;;4.80;2.63;;;;;;;11.22;47.61;98943.53;5047700;28;20067;-68
2022/04/03 08:25:01;;;;;;;5.32;3.10;;;;;;;11.33;46.91;98941.56;5047848;28;20084;-68
2022/04/03 08:27:43;;;;;;;5.47;3.15;;;;;;;10.72;48.53;98940.81;5062357;28;20212;-68
2022/04/03 08:30:13;;;;;;;6.05;3.30;;;;;;;10.68;51.71;98936.50;5067237;28;20058;-68
2022/04/03 08:32:39;;;;;;;5.30;2.97;;;;;;;11.44;48.12;98944.88;5051767;28;20375;-68
2022/04/03 08:35:04;;;;;;;3.90;2.47;;;;;;;11.19;50.68;98940.94;5047467;28;20049;-69
2022/04/03 08:37:30;;;;;;;6.20;3.30;;;;;;;10.41;51.33;98939.53;5047269;28;20103;-69
2022/04/03 08:39:55;;;;;;;5.25;2.85;;;;;;;11.31;49.30;98943.38;5047310;28;20067;-69
2022/04/03 08:42:21;;;;;;;4.78;2.75;;;;;;;11.37;49.04;98940.63;5049475;28;20029;-69
2022/04/03 08:44:46;;;;;;;4.57;2.38;;;;;;;9.76;47.86;98942.06;5066685;28;20392;-69
2022/04/03 08:47:16;;;;;;;6.53;2.95;;;;;;;9.13;47.90;98942.72;5066316;28;20058;-69
2022/04/03 08:49:43;;;;;;;6.13;2.65;;;;;;;8.09;49.90;98941.66;5066557;28;20047;-68
2022/04/03 08:52:12;;;;;;;4.15;2.42;;;;;;;8.06;51.75;98946.91;5066499;28;20020;-68
2022/04/03 08:54:38;;;;;;;5.57;3.15;;;;;;;8.49;50.97;98961.56;5056380;28;20113;-68
2022/04/03 08:57:04;;;;;;;4.88;3.03;;;;;;;9.67;49.84;98952.69;5059786;28;20017;-68
2022/04/03 08:59:29;;;;;;;5.45;2.65;;;;;;;8.79;47.98;98952.63;5050247;28;20026;-68
2022/04/03 09:01:55;;;;;;;4.97;2.78;;;;;;;8.71;49.06;98962.31;5046950;28;20371;-68
2022/04/03 09:04:21;;;;;;;3.70;2.50;;;;;;;7.31;51.57;98947.13;5046883;28;20120;-68
2022/04/03 09:07:06;;;;;;;5.32;2.83;;;;;;;6.49;54.22;98950.63;5063663;28;20021;-68
2022/04/03 09:09:32;;;;;;;3.85;2.17;;;;;;;6.77;53.45;98957.63;5051593;28;20075;-68
2022/04/03 09:12:15;;;;;;;4.63;2.38;;;;;;;6.41;56.07;98949.72;5046671;28;20036;-68
2022/04/03 09:14:59;;;;;;;5.28;2.65;;;;;;;6.44;55.46;98968.03;5046673;28;20021;-68
2022/04/03 09:17:32;;;;;;;4.63;3.15;;;;;;;6.23;58.02;98965.34;5058462;28;20036;-68
2022/04/03 09:20:08;;;;;;;4.88;2.47;;;;;;;6.49;54.21;98966.31;5066164;28;20016;-68
2022/04/03 09:22:36;;;;;;;6.53;2.38;;;;;;;6.85;53.01;98963.75;5049928;28;20112;-68
2022/04/03 09:25:08;;;;;;;3.85;2.42;;;;;;;6.81;53.59;98969.84;5048400;28;20056;-68
2022/04/03 09:27:34;;;;;;;4.20;2.30;;;;;;;6.66;52.31;98969.81;5066183;28;20331;-68
2022/04/03 09:30:02;;;;;;;2.38;1.73;;;;;;;6.57;52.28;98975.03;5065838;28;20249;-68
2022/04/03 09:32:28;;;;;;;3.92;2.33;;;;;;;6.73;51.52;98971.56;5052697;28;20091;-68
2022/04/03 09:34:57;;;;;;;4.45;1.88;;;;;;;6.78;50.60;98980.31;5046298;28;20221;-68
2022/04/03 09:37:23;;;;;;;4.53;2.08;;;;;;;6.80;49.25;98980.31;5056279;28;20025;-68
2022/04/03 09:39:49;;;;;;;5.20;2.22;;;;;;;6.78;47.43;98975.06;5065623;28;20032;-68
2022/04/03 09:42:15;;;;;;;2.55;1.55;;;;;;;6.54;45.45;98975.03;5065567;28;20031;-68
2022/04/03 09:44:43;;;;;;;2.42;1.67;;;;;;;6.80;46.71;98981.16;5046872;28;20036;-68
2022/04/03 09:47:22;;;;;;;4.65;2.30;;;;;;;6.52;51.26;98966.31;5046049;28;20325;-68
2022/04/03 09:49:59;;;;;;;3.88;2.17;;;;;;;6.01;52.05;98977.47;5047180;28;20212;-68
2022/04/03 09:52:51;;;;;;;5.68;2.22;;;;;;;6.51;50.31;98975.03;5046000;28;20024;-68
2022/04/03 09:55:22;;;;;;;3.88;1.98;;;;;;;6.76;48.55;98974.19;5051027;28;20079;-68
2022/04/03 09:58:08;;;;;;;3.00;1.88;;;;;;;7.19;47.44;98978.56;5051206;28;20025;-68
2022/04/03 10:00:37;;;;;;;3.88;1.90;;;;;;;6.51;47.21;98980.25;5045792;28;20068;-68
2022/04/03 10:03:03;;;;;;;4.22;1.80;;;;;;;6.31;50.16;98966.28;5045891;28;20025;-68
2022/04/03 10:05:31;;;;;;;4.88;1.60;;;;;;;6.19;47.74;98979.28;5045722;28;20253;-68
2022/04/03 10:07:59;;;;;;;2.15;1.52;;;;;;;6.13;48.50;98976.66;5047069;28;20028;-68
2022/04/03 10:10:26;;;;;;;10.13;2.58;;;;;;;6.34;50.79;98977.63;5045841;28;20021;-68
2022/04/03 10:12:53;;;;;;;3.78;1.95;;;;;;;6.41;49.16;98973.25;5052892;28;20067;-68
2022/04/03 10:15:19;;;;;;;4.97;1.90;;;;;;;5.98;51.49;98971.41;5064838;28;20025;-68
2022/04/03 10:17:44;;;;;;;3.63;1.95;;;;;;;6.22;51.00;98977.56;5049085;28;20044;-68
2022/04/03 10:20:10;;;;;;;6.72;1.90;;;;;;;6.10;48.99;98981.88;5064855;28;20382;-68
2022/04/03 10:22:39;;;;;;;6.07;1.83;;;;;;;6.16;50.55;98984.50;5064627;28;20029;-68
2022/04/03 10:25:11;;;;;;;3.35;1.65;;;;;;;6.01;52.59;98977.47;5061009;28;20088;-68
2022/04/03 10:27:39;;;;;;;3.17;1.73;;;;;;;5.95;52.02;98981.81;5045638;28;20013;-68
2022/04/03 10:30:06;;;;;;;2.20;1.40;;;;;;;6.13;50.94;98987.09;5056393;28;20095;-68
2022/04/03 10:32:34;;;;;;;2.05;1.33;;;;;;;6.05;48.71;98973.16;5064327;28;20040;-68
2022/04/03 10:35:12;;;;;;;3.13;1.10;;;;;;;6.61;48.83;98976.78;5064205;28;20027;-68
2022/04/03 10:37:42;;;;;;;3.22;1.58;;;;;;;6.67;48.81;98975.94;5064434;28;20244;-68
2022/04/03 10:40:13;;;;;;;5.95;1.88;;;;;;;6.71;48.33;98983.78;5062610;28;20082;-68
2022/04/03 10:43:01;;;;;;;1.85;1.55;;;;;;;6.45;49.16;98982.84;5045072;28;20025;-68
2022/04/03 10:45:34;;;;;;;5.03;2.13;;;;;;;6.93;48.86;98977.69;5056486;28;20052;-68
2022/04/03 10:48:18;;;;;;;;;;;;;;;6.74;47.16;98972.47;5064734;28;20025;-68
2022/04/03 10:51:08;;;;;;;1.65;1.30;;;;;;;6.72;47.88;98972.44;5064262;28;19904;-68
2022/04/03 10:53:39;;;;;;;3.20;1.40;;;;;;;6.53;46.24;98961.09;5045185;28;20344;-68
2022/04/03 10:56:19;;;;;;;2.47;1.53;;;;;;;6.91;46.15;98968.09;5059217;28;20311;-68
2022/04/03 10:58:49;;;;;;;2.67;1.75;;;;;;;7.04;44.25;98965.50;5064207;28;20439;-68
2022/04/03 11:01:24;;;;;;;8.50;1.65;;;;;;;6.99;44.69;98964.59;5049374;28;20040;-68
2022/04/03 11:03:55;;;;;;;2.00;1.45;;;;;;;7.41;42.59;98969.84;5055560;28;20177;-68
2022/04/03 11:06:23;;;;;;;3.25;1.77;;;;;;;7.53;43.27;98966.31;5064037;28;20047;-68
2022/04/03 11:09:00;;;;;;;6.03;1.88;;;;;;;7.43;45.99;98962.81;5054171;28;20036;-68
2022/04/03 11:11:35;;;;;;;3.53;1.60;;;;;;;7.44;45.83;98959.31;5044392;28;20013;-68
2022/04/03 11:14:00;;;;;;;2.25;1.52;;;;;;;6.77;46.71;98962.00;5044730;28;20048;-68
2022/04/03 11:16:26;;;;;;;3.75;1.58;;;;;;;6.88;44.15;98966.34;5044346;28;20317;-68
2022/04/03 11:18:52;;;;;;;3.38;1.85;;;;;;;6.74;44.90;98952.38;5044400;28;20028;-68
2022/04/03 11:21:24;;;;;;;4.10;1.50;;;;;;;6.60;46.38;98964.59;5063901;28;20092;-68
2022/04/03 11:24:12;;;;;;;2.03;1.50;;;;;;;6.53;45.19;98968.06;5063776;28;20040;-68
2022/04/03 11:26:39;;;;;;;3.25;1.40;;;;;;;6.61;42.87;98956.75;5063594;28;20036;-68
2022/04/03 11:29:07;;;;;;;6.60;2.05;;;;;;;6.58;43.58;98950.63;5063374;28;20074;-68
2022/04/03 11:31:34;;;;;;;4.88;2.22;;;;;;;6.70;42.80;98945.41;5051997;28;20036;-68
2022/04/03 11:34:00;;;;;;;2.35;1.40;;;;;;;7.70;43.34;98952.28;5044186;28;20028;-68
2022/04/03 11:36:28;;;;;;;2.13;1.30;;;;;;;8.14;43.03;98945.09;5061979;28;20021;-68
2022/04/03 11:38:54;;;;;;;1.58;1.27;;;;;;;7.98;44.09;98937.34;5063493;28;20024;-68